Time;durP1;ratioP1;P1;durP2;ratioP2;P2;SDS_P1;SDS_P2;PMS_P1;PMS_P2;Temp;Humidity;BMP_temperature;BMP_pressure;BME280_temperature;BME280_humidity;BME280_pressure;Samples;Min_cycle;Max_cycle;Signal;HPM_P1;HPM_P2
2023/12/23 00:00:34;;;;;;;3.10;1.30;;;;;;;;;;6291859;22;20431;-92
2023/12/23 00:03:06;;;;;;;2.20;1.07;;;;;;;;;;6295379;22;20391;-91
2023/12/23 00:05:32;;;;;;;2.90;1.10;;;;;;;;;;6324227;22;20415;-92
2023/12/23 00:07:59;;;;;;;1.83;1.20;;;;;;;;;;6292364;22;20378;-92
2023/12/23 00:10:25;;;;;;;6.33;1.00;;;;;;;;;;6296289;22;20515;-92
2023/12/23 00:12:51;;;;;;;0.90;0.90;;;;;;;;;;6293509;22;20376;-92
2023/12/23 00:15:17;;;;;;;2.13;1.27;;;;;;;;;;6295327;22;20376;-92
2023/12/23 00:17:43;;;;;;;1.80;1.10;;;;;;;;;;6292519;22;20371;-92
2023/12/23 00:20:09;;;;;;;2.20;1.27;;;;;;;;;;6296410;22;20419;-93
2023/12/23 00:22:36;;;;;;;2.10;0.80;;;;;;;;;;6293375;22;20760;-92
2023/12/23 00:25:02;;;;;;;0.87;0.80;;;;;;;;;;6293284;22;20379;-91
2023/12/23 00:27:28;;;;;;;1.20;1.10;;;;;;;;;;6296437;22;20355;-92
2023/12/23 00:29:54;;;;;;;0.80;0.70;;;;;;;;;;6321873;22;20387;-91
2023/12/23 00:32:20;;;;;;;2.60;1.10;;;;;;;;;;6294800;22;20372;-91
2023/12/23 00:34:46;;;;;;;1.27;1.00;;;;;;;;;;6293654;22;20737;-92
2023/12/23 00:37:12;;;;;;;8.00;1.40;;;;;;;;;;6294202;22;20402;-91
2023/12/23 00:39:40;;;;;;;1.67;1.57;;;;;;;;;;6320325;22;20444;-92
2023/12/23 00:42:06;;;;;;;2.93;1.20;;;;;;;;;;6294663;22;20380;-92
2023/12/23 00:44:32;;;;;;;1.30;1.13;;;;;;;;;;6295412;22;20377;-92
2023/12/23 00:46:58;;;;;;;4.20;1.70;;;;;;;;;;6296104;22;20415;-92
2023/12/23 00:49:24;;;;;;;3.93;1.70;;;;;;;;;;6293991;22;20381;-94
2023/12/23 00:51:50;;;;;;;3.57;1.10;;;;;;;;;;6298203;22;20367;-92
2023/12/23 00:54:17;;;;;;;2.03;1.20;;;;;;;;;;6294082;22;20401;-92
2023/12/23 00:56:43;;;;;;;0.97;0.87;;;;;;;;;;6296105;22;20698;-93
2023/12/23 00:59:09;;;;;;;2.30;1.47;;;;;;;;;;6291893;22;20439;-92
2023/12/23 01:01:35;;;;;;;5.83;1.13;;;;;;;;;;6320022;22;20418;-93
2023/12/23 01:04:01;;;;;;;1.33;0.90;;;;;;;;;;6291847;22;20351;-93
2023/12/23 01:06:27;;;;;;;2.03;1.10;;;;;;;;;;6292067;22;20367;-92
2023/12/23 01:08:53;;;;;;;1.57;1.30;;;;;;;;;;6287740;22;20383;-91
2023/12/23 01:11:19;;;;;;;1.00;0.80;;;;;;;;;;6293826;22;20391;-91
2023/12/23 01:13:45;;;;;;;3.23;0.87;;;;;;;;;;6293267;22;20372;-92
2023/12/23 01:16:11;;;;;;;2.07;1.97;;;;;;;;;;6292744;22;20383;-92
2023/12/23 01:18:37;;;;;;;4.83;1.10;;;;;;;;;;6291007;22;20426;-92
2023/12/23 01:21:04;;;;;;;1.20;1.03;;;;;;;;;;6293142;22;20880;-92
2023/12/23 01:23:30;;;;;;;1.00;0.77;;;;;;;;;;6291460;22;20414;-94
2023/12/23 01:25:56;;;;;;;1.27;0.93;;;;;;;;;;6292503;22;20361;-93
2023/12/23 01:28:22;;;;;;;3.50;1.20;;;;;;;;;;6290404;22;20406;-92
2023/12/23 01:30:48;;;;;;;1.40;0.80;;;;;;;;;;6288526;22;20379;-92
2023/12/23 01:33:14;;;;;;;2.20;1.00;;;;;;;;;;6315945;22;20387;-92
2023/12/23 01:35:40;;;;;;;1.70;0.97;;;;;;;;;;6293429;22;20390;-93
2023/12/23 01:38:06;;;;;;;1.83;0.70;;;;;;;;;;6292807;22;20376;-93
2023/12/23 01:40:34;;;;;;;1.13;1.03;;;;;;;;;;6294864;22;20497;-93
2023/12/23 01:43:01;;;;;;;3.23;0.63;;;;;;;;;;6288443;22;20875;-93
2023/12/23 01:45:27;;;;;;;3.30;1.30;;;;;;;;;;6260772;22;20376;-93
2023/12/23 01:47:53;;;;;;;1.23;0.93;;;;;;;;;;6261789;22;20385;-93
2023/12/23 01:50:19;;;;;;;1.50;0.90;;;;;;;;;;6259631;22;20608;-93
2023/12/23 01:52:45;;;;;;;4.10;1.60;;;;;;;;;;6258299;22;20440;-92
2023/12/23 01:55:11;;;;;;;2.90;1.10;;;;;;;;;;6259501;22;20396;-94
2023/12/23 01:57:37;;;;;;;2.70;1.40;;;;;;;;;;6259784;22;20962;-93
2023/12/23 02:00:03;;;;;;;1.60;0.93;;;;;;;;;;6257924;22;20471;-93
2023/12/23 02:02:29;;;;;;;4.30;1.27;;;;;;;;;;6259023;22;20455;-93
2023/12/23 02:04:58;;;;;;;3.23;1.80;;;;;;;;;;6259255;22;20372;-93
2023/12/23 02:07:24;;;;;;;1.23;1.00;;;;;;;;;;6259739;22;20364;-94
2023/12/23 02:09:51;;;;;;;2.63;1.50;;;;;;;;;;6258670;22;20886;-93
2023/12/23 02:12:17;;;;;;;2.73;1.47;;;;;;;;;;6260471;22;20383;-90
2023/12/23 02:14:51;;;;;;;5.10;1.70;;;;;;;;;;6283048;22;20381;-92
2023/12/23 02:17:17;;;;;;;1.77;1.20;;;;;;;;;;6224987;23;21349;-93
2023/12/23 02:19:43;;;;;;;1.30;1.10;;;;;;;;;;6220452;23;20386;-92
2023/12/23 02:22:09;;;;;;;2.17;1.00;;;;;;;;;;6222605;23;20431;-93
2023/12/23 02:24:35;;;;;;;1.73;1.20;;;;;;;;;;6222746;23;20406;-92
2023/12/23 02:27:04;;;;;;;1.63;1.30;;;;;;;;;;6224797;23;20370;-92
2023/12/23 02:29:30;;;;;;;2.37;1.20;;;;;;;;;;6221440;23;20598;-92
2023/12/23 02:31:57;;;;;;;3.97;1.30;;;;;;;;;;6220810;23;20382;-93
2023/12/23 02:34:22;;;;;;;9.33;4.13;;;;;;;;;;6221979;23;20381;-93
2023/12/23 02:36:48;;;;;;;1.00;0.90;;;;;;;;;;6245777;23;20378;-92
2023/12/23 02:39:14;;;;;;;1.70;0.90;;;;;;;;;;6243454;23;20370;-92
2023/12/23 02:41:41;;;;;;;3.80;1.40;;;;;;;;;;6247866;23;20418;-92
2023/12/23 02:44:07;;;;;;;2.87;1.03;;;;;;;;;;6248678;23;20417;-92
2023/12/23 02:46:33;;;;;;;1.57;1.00;;;;;;;;;;6244271;23;20374;-92
2023/12/23 02:49:00;;;;;;;3.47;1.50;;;;;;;;;;6301568;22;20399;-92
2023/12/23 02:51:26;;;;;;;1.43;1.07;;;;;;;;;;6287396;22;20387;-92
2023/12/23 02:53:52;;;;;;;3.53;1.20;;;;;;;;;;6290669;22;20380;-91
2023/12/23 02:56:18;;;;;;;1.23;1.13;;;;;;;;;;6289594;22;20789;-91
2023/12/23 02:58:44;;;;;;;1.00;0.80;;;;;;;;;;6291426;22;20375;-93
2023/12/23 03:01:10;;;;;;;3.00;0.83;;;;;;;;;;6290068;22;20418;-92
2023/12/23 03:03:36;;;;;;;2.43;1.30;;;;;;;;;;6317621;22;20366;-91
2023/12/23 03:06:02;;;;;;;1.70;1.50;;;;;;;;;;6291099;22;20830;-91
2023/12/23 03:08:28;;;;;;;2.83;1.10;;;;;;;;;;6290979;22;20882;-91
2023/12/23 03:10:54;;;;;;;3.00;1.40;;;;;;;;;;6290298;22;20912;-91
2023/12/23 03:13:20;;;;;;;1.80;1.13;;;;;;;;;;6291604;22;20455;-93
2023/12/23 03:15:46;;;;;;;4.57;1.50;;;;;;;;;;6291717;22;20463;-91
2023/12/23 03:18:12;;;;;;;7.63;1.60;;;;;;;;;;6291428;22;20425;-90
2023/12/23 03:20:38;;;;;;;2.57;1.23;;;;;;;;;;6290345;22;20865;-92
2023/12/23 03:23:04;;;;;;;3.47;1.10;;;;;;;;;;6294565;22;20410;-92
2023/12/23 03:25:30;;;;;;;4.00;1.27;;;;;;;;;;6289972;22;20372;-91
2023/12/23 03:27:56;;;;;;;4.73;1.33;;;;;;;;;;6288597;22;20380;-91
2023/12/23 03:30:22;;;;;;;2.13;1.20;;;;;;;;;;6289895;22;20386;-91
2023/12/23 03:32:48;;;;;;;6.13;1.90;;;;;;;;;;6294204;22;20405;-90
2023/12/23 03:35:14;;;;;;;1.60;0.90;;;;;;;;;;6289724;22;20372;-91
2023/12/23 03:37:40;;;;;;;2.13;2.03;;;;;;;;;;6291056;22;20401;-91
2023/12/23 03:40:08;;;;;;;1.73;1.33;;;;;;;;;;6290733;22;20439;-91
2023/12/23 03:42:35;;;;;;;3.07;1.10;;;;;;;;;;6293423;22;20391;-91
2023/12/23 03:45:01;;;;;;;1.10;0.93;;;;;;;;;;6289656;22;20403;-88
2023/12/23 03:47:27;;;;;;;1.60;1.23;;;;;;;;;;6300009;22;20374;-88
2023/12/23 03:49:53;;;;;;;2.40;0.70;;;;;;;;;;6304766;22;20393;-86
2023/12/23 03:52:19;;;;;;;1.50;1.30;;;;;;;;;;6296612;22;20391;-87
2023/12/23 03:54:45;;;;;;;1.73;1.20;;;;;;;;;;6291254;22;20375;-86
2023/12/23 03:57:11;;;;;;;6.33;1.10;;;;;;;;;;6289226;22;20452;-87
2023/12/23 03:59:38;;;;;;;3.20;1.10;;;;;;;;;;6290949;22;20422;-87
2023/12/23 04:02:04;;;;;;;2.20;1.53;;;;;;;;;;6292415;22;20394;-87
2023/12/23 04:04:30;;;;;;;6.53;1.17;;;;;;;;;;6298372;22;20821;-87
2023/12/23 04:06:56;;;;;;;1.83;1.00;;;;;;;;;;6292431;22;20364;-87
2023/12/23 04:09:22;;;;;;;0.80;0.80;;;;;;;;;;6290941;22;20916;-87
2023/12/23 04:11:48;;;;;;;3.20;1.00;;;;;;;;;;6291414;22;20378;-83
2023/12/23 04:14:14;;;;;;;2.67;1.13;;;;;;;;;;6319221;22;20368;-87
2023/12/23 04:16:40;;;;;;;4.10;1.43;;;;;;;;;;6290407;22;20436;-88
2023/12/23 04:19:06;;;;;;;2.87;1.20;;;;;;;;;;6291436;22;20448;-88
2023/12/23 04:21:32;;;;;;;1.90;1.30;;;;;;;;;;6291698;22;20438;-87
2023/12/23 04:23:58;;;;;;;1.13;1.03;;;;;;;;;;6322425;22;20421;-87
2023/12/23 04:26:25;;;;;;;2.40;1.00;;;;;;;;;;6293188;22;20379;-87
2023/12/23 04:28:51;;;;;;;4.20;0.93;;;;;;;;;;6291159;22;20363;-87
2023/12/23 04:31:17;;;;;;;1.33;1.13;;;;;;;;;;6291370;22;20880;-87
2023/12/23 04:33:43;;;;;;;0.80;0.70;;;;;;;;;;6292627;22;20371;-87
2023/12/23 04:36:09;;;;;;;1.73;0.90;;;;;;;;;;6294828;22;20436;-87
2023/12/23 04:38:35;;;;;;;1.10;1.00;;;;;;;;;;6317354;22;20854;-87
2023/12/23 04:41:01;;;;;;;1.00;0.80;;;;;;;;;;6291569;22;20414;-87
2023/12/23 04:43:30;;;;;;;3.17;0.80;;;;;;;;;;6316952;22;20455;-87
2023/12/23 04:45:56;;;;;;;1.40;1.00;;;;;;;;;;6319606;22;20384;-87
2023/12/23 04:48:22;;;;;;;1.00;0.90;;;;;;;;;;6292383;22;20375;-87
2023/12/23 04:50:48;;;;;;;0.80;0.70;;;;;;;;;;6292300;22;20413;-86
2023/12/23 04:53:14;;;;;;;0.90;0.80;;;;;;;;;;6318416;22;20363;-87
2023/12/23 04:55:40;;;;;;;1.00;0.70;;;;;;;;;;6297463;22;20375;-86
2023/12/23 04:58:08;;;;;;;1.17;0.80;;;;;;;;;;6292017;22;20385;-86
2023/12/23 05:00:34;;;;;;;1.13;0.90;;;;;;;;;;6292359;22;20981;-87
2023/12/23 05:03:00;;;;;;;2.93;0.60;;;;;;;;;;6294646;22;20458;-87
2023/12/23 05:05:26;;;;;;;1.83;0.83;;;;;;;;;;6316871;22;20443;-87
2023/12/23 05:07:52;;;;;;;1.40;0.87;;;;;;;;;;6295303;22;20835;-86
2023/12/23 05:10:18;;;;;;;0.80;0.80;;;;;;;;;;6291214;22;20375;-86
2023/12/23 05:12:44;;;;;;;0.80;0.73;;;;;;;;;;6317511;22;20988;-87
2023/12/23 05:15:10;;;;;;;3.00;0.90;;;;;;;;;;6317104;22;20370;-86
2023/12/23 05:17:36;;;;;;;6.03;1.07;;;;;;;;;;6293481;22;20371;-86
2023/12/23 05:20:02;;;;;;;2.10;0.90;;;;;;;;;;6291010;22;20928;-88
2023/12/23 05:22:28;;;;;;;1.43;0.80;;;;;;;;;;6291482;22;20371;-87
2023/12/23 05:24:54;;;;;;;1.30;0.60;;;;;;;;;;6324054;22;20372;-87
2023/12/23 05:27:20;;;;;;;1.90;1.03;;;;;;;;;;6334174;22;20380;-88
2023/12/23 05:29:46;;;;;;;0.70;0.67;;;;;;;;;;6305782;22;20419;-87
2023/12/23 05:32:12;;;;;;;1.10;0.90;;;;;;;;;;6332241;22;20376;-88
2023/12/23 05:34:38;;;;;;;2.77;0.70;;;;;;;;;;6307205;22;20384;-87
2023/12/23 05:37:04;;;;;;;1.30;0.90;;;;;;;;;;6310075;22;20360;-89
2023/12/23 05:39:30;;;;;;;0.80;0.60;;;;;;;;;;6299223;22;20988;-88
2023/12/23 05:41:56;;;;;;;1.17;0.77;;;;;;;;;;6319322;22;20411;-89
2023/12/23 05:44:22;;;;;;;0.60;0.53;;;;;;;;;;6293064;22;20373;-88
2023/12/23 05:46:48;;;;;;;0.60;0.57;;;;;;;;;;6292736;22;20351;-89
2023/12/23 05:49:14;;;;;;;1.03;0.70;;;;;;;;;;6289286;22;20372;-90
2023/12/23 05:51:40;;;;;;;1.27;0.80;;;;;;;;;;6290803;22;20475;-89
2023/12/23 05:54:06;;;;;;;0.60;0.50;;;;;;;;;;6289207;22;20382;-88
2023/12/23 05:56:32;;;;;;;0.70;0.70;;;;;;;;;;6292751;22;20407;-88
2023/12/23 05:58:58;;;;;;;3.90;1.33;;;;;;;;;;6290148;22;20392;-89
2023/12/23 06:01:24;;;;;;;0.70;0.50;;;;;;;;;;6318781;22;20403;-88
2023/12/23 06:03:50;;;;;;;1.87;0.50;;;;;;;;;;6290034;22;20801;-88
2023/12/23 06:06:16;;;;;;;0.60;0.50;;;;;;;;;;6318142;22;20360;-88
2023/12/23 06:08:42;;;;;;;0.70;0.60;;;;;;;;;;6289684;22;20414;-89
2023/12/23 06:11:08;;;;;;;1.00;0.53;;;;;;;;;;6290411;22;20387;-88
2023/12/23 06:13:34;;;;;;;1.70;0.60;;;;;;;;;;6291076;22;20434;-89
2023/12/23 06:16:06;;;;;;;0.60;0.60;;;;;;;;;;6291005;22;20392;-89
2023/12/23 06:18:33;;;;;;;0.60;0.50;;;;;;;;;;6295193;22;20419;-88
2023/12/23 06:20:59;;;;;;;1.00;0.83;;;;;;;;;;6291752;22;20758;-88
2023/12/23 06:23:25;;;;;;;0.70;0.53;;;;;;;;;;6290732;22;20394;-89
2023/12/23 06:25:51;;;;;;;2.23;0.60;;;;;;;;;;6291640;22;20376;-88
2023/12/23 06:28:17;;;;;;;0.73;0.50;;;;;;;;;;6293057;22;20399;-89
2023/12/23 06:30:43;;;;;;;0.90;0.57;;;;;;;;;;6316972;22;20339;-88
2023/12/23 06:33:09;;;;;;;0.60;0.50;;;;;;;;;;6295845;22;20425;-89
2023/12/23 06:35:35;;;;;;;0.73;0.50;;;;;;;;;;6291858;22;20428;-89
2023/12/23 06:38:01;;;;;;;0.70;0.53;;;;;;;;;;6291794;22;20934;-87
2023/12/23 06:40:28;;;;;;;0.60;0.50;;;;;;;;;;6290365;22;20472;-90
2023/12/23 06:42:54;;;;;;;0.80;0.63;;;;;;;;;;6291502;22;20415;-88
2023/12/23 06:45:20;;;;;;;0.70;0.50;;;;;;;;;;6291707;22;20387;-89
2023/12/23 06:47:47;;;;;;;0.60;0.50;;;;;;;;;;6290891;22;20382;-89
2023/12/23 06:50:12;;;;;;;0.70;0.50;;;;;;;;;;6290311;22;20406;-89
2023/12/23 06:52:38;;;;;;;0.70;0.50;;;;;;;;;;6293777;22;20382;-88
2023/12/23 06:55:05;;;;;;;0.70;0.50;;;;;;;;;;6290253;22;20376;-89
2023/12/23 06:57:31;;;;;;;0.60;0.50;;;;;;;;;;6292918;22;20462;-89
2023/12/23 06:59:58;;;;;;;0.60;0.50;;;;;;;;;;6290057;22;20399;-90
2023/12/23 07:02:25;;;;;;;0.60;0.60;;;;;;;;;;6293850;22;20371;-91
2023/12/23 07:04:51;;;;;;;0.70;0.60;;;;;;;;;;6293064;22;20843;-90
2023/12/23 07:07:19;;;;;;;0.70;0.70;;;;;;;;;;6291669;22;20378;-90
2023/12/23 07:09:45;;;;;;;0.60;0.50;;;;;;;;;;6317107;22;20364;-90
2023/12/23 07:12:11;;;;;;;0.70;0.50;;;;;;;;;;6292526;22;20376;-90
2023/12/23 07:14:37;;;;;;;0.80;0.70;;;;;;;;;;6317575;22;20359;-89
2023/12/23 07:17:03;;;;;;;0.60;0.50;;;;;;;;;;6293031;22;20363;-91
2023/12/23 07:19:30;;;;;;;0.70;0.60;;;;;;;;;;6293246;22;20368;-89
2023/12/23 07:21:59;;;;;;;1.83;0.60;;;;;;;;;;6293841;22;20407;-90
2023/12/23 07:24:25;;;;;;;0.60;0.50;;;;;;;;;;6299698;22;20409;-90
2023/12/23 07:26:51;;;;;;;0.60;0.50;;;;;;;;;;6293982;22;20375;-91
2023/12/23 07:29:17;;;;;;;0.60;0.50;;;;;;;;;;6320172;22;20370;-90
2023/12/23 07:31:43;;;;;;;0.60;0.50;;;;;;;;;;6295136;22;20879;-90
2023/12/23 07:34:09;;;;;;;0.60;0.50;;;;;;;;;;6294972;22;20384;-91
2023/12/23 07:36:35;;;;;;;0.77;0.60;;;;;;;;;;6296239;22;20916;-91
2023/12/23 07:39:01;;;;;;;0.60;0.50;;;;;;;;;;6294056;22;20401;-90
2023/12/23 07:41:27;;;;;;;0.80;0.70;;;;;;;;;;6294899;22;20412;-90
2023/12/23 07:43:53;;;;;;;0.60;0.50;;;;;;;;;;6318485;22;20364;-92
2023/12/23 07:46:19;;;;;;;0.67;0.60;;;;;;;;;;6293706;22;20367;-91
2023/12/23 07:48:45;;;;;;;1.10;0.90;;;;;;;;;;6291101;22;20427;-91
2023/12/23 07:51:11;;;;;;;0.80;0.73;;;;;;;;;;6292344;22;20383;-91
2023/12/23 07:53:37;;;;;;;1.10;0.70;;;;;;;;;;6291219;22;20399;-90
2023/12/23 07:56:07;;;;;;;0.60;0.60;;;;;;;;;;6293805;22;20473;-92
2023/12/23 07:58:33;;;;;;;0.83;0.57;;;;;;;;;;6293464;22;20432;-90
2023/12/23 08:01:01;;;;;;;1.70;0.70;;;;;;;;;;6292607;22;20431;-91
2023/12/23 08:03:27;;;;;;;0.63;0.63;;;;;;;;;;6293662;22;20365;-91
2023/12/23 08:05:53;;;;;;;0.60;0.50;;;;;;;;;;6296293;22;20379;-90
2023/12/23 08:08:19;;;;;;;0.70;0.60;;;;;;;;;;6290786;22;20379;-92
2023/12/23 08:10:45;;;;;;;0.90;0.60;;;;;;;;;;6318116;22;20370;-91
2023/12/23 08:13:11;;;;;;;0.60;0.50;;;;;;;;;;6292162;22;20893;-91
2023/12/23 08:15:37;;;;;;;0.80;0.60;;;;;;;;;;6292958;22;20372;-90
2023/12/23 08:18:03;;;;;;;1.33;0.60;;;;;;;;;;6291673;22;20380;-91
2023/12/23 08:20:29;;;;;;;0.73;0.70;;;;;;;;;;6317243;22;20426;-89
2023/12/23 08:22:55;;;;;;;0.80;0.70;;;;;;;;;;6290314;22;20372;-88
2023/12/23 08:25:21;;;;;;;0.90;0.57;;;;;;;;;;6294699;22;20660;-90
2023/12/23 08:27:47;;;;;;;0.60;0.50;;;;;;;;;;6293719;22;20355;-90
2023/12/23 08:30:15;;;;;;;0.60;0.50;;;;;;;;;;6318563;22;20447;-89
2023/12/23 08:32:41;;;;;;;1.77;0.60;;;;;;;;;;6293302;22;20376;-90
2023/12/23 08:35:08;;;;;;;0.60;0.60;;;;;;;;;;6289950;22;20707;-89
2023/12/23 08:37:34;;;;;;;1.07;0.50;;;;;;;;;;6294464;22;20376;-90
2023/12/23 08:40:00;;;;;;;0.70;0.63;;;;;;;;;;6290463;22;20376;-91
2023/12/23 08:42:26;;;;;;;0.73;0.53;;;;;;;;;;6291929;22;20366;-90
2023/12/23 08:44:52;;;;;;;0.60;0.40;;;;;;;;;;6291479;22;20782;-90
2023/12/23 08:47:18;;;;;;;0.70;0.60;;;;;;;;;;6294352;22;20455;-90
2023/12/23 08:49:44;;;;;;;0.80;0.60;;;;;;;;;;6294235;22;20374;-90
2023/12/23 08:52:10;;;;;;;0.60;0.50;;;;;;;;;;6296744;22;20378;-91
2023/12/23 08:54:36;;;;;;;0.80;0.50;;;;;;;;;;6291963;22;20376;-89
2023/12/23 08:57:02;;;;;;;0.70;0.60;;;;;;;;;;6293326;22;20374;-89
2023/12/23 08:59:28;;;;;;;0.63;0.63;;;;;;;;;;6291586;22;20389;-89
2023/12/23 09:01:54;;;;;;;0.70;0.60;;;;;;;;;;6292286;22;20443;-90
2023/12/23 09:04:20;;;;;;;0.90;0.70;;;;;;;;;;6294582;22;20400;-90
2023/12/23 09:06:46;;;;;;;0.60;0.53;;;;;;;;;;6293444;22;20384;-90
2023/12/23 09:09:14;;;;;;;0.73;0.60;;;;;;;;;;6319613;22;20363;-90
2023/12/23 09:11:43;;;;;;;0.60;0.50;;;;;;;;;;6257172;22;20489;-90
2023/12/23 09:14:12;;;;;;;0.70;0.60;;;;;;;;;;6229216;22;20373;-89
2023/12/23 09:16:38;;;;;;;0.87;0.50;;;;;;;;;;6233301;22;20423;-89
2023/12/23 09:19:04;;;;;;;0.80;0.60;;;;;;;;;;6229640;22;20377;-89
2023/12/23 09:21:31;;;;;;;0.60;0.50;;;;;;;;;;6231841;22;20417;-90
2023/12/23 09:23:57;;;;;;;0.90;0.60;;;;;;;;;;6230605;22;20476;-90
2023/12/23 09:26:24;;;;;;;0.60;0.50;;;;;;;;;;6230973;22;20552;-90
2023/12/23 09:28:50;;;;;;;0.60;0.50;;;;;;;;;;6229027;22;20476;-90
2023/12/23 09:31:16;;;;;;;0.70;0.50;;;;;;;;;;6231472;22;20417;-90
2023/12/23 09:33:42;;;;;;;2.60;0.70;;;;;;;;;;6229802;22;20404;-89
2023/12/23 09:36:08;;;;;;;0.60;0.50;;;;;;;;;;6233828;22;20377;-89
2023/12/23 09:38:34;;;;;;;0.60;0.50;;;;;;;;;;6228160;22;20461;-88
2023/12/23 09:41:00;;;;;;;0.70;0.53;;;;;;;;;;6233768;22;20417;-89
2023/12/23 09:43:26;;;;;;;0.60;0.40;;;;;;;;;;6229878;22;20408;-89
2023/12/23 09:45:53;;;;;;;0.80;0.53;;;;;;;;;;6230706;22;20402;-89
2023/12/23 09:48:19;;;;;;;0.60;0.50;;;;;;;;;;6228168;22;20444;-91
2023/12/23 09:50:48;;;;;;;0.60;0.50;;;;;;;;;;6231887;22;20413;-92
2023/12/23 09:53:14;;;;;;;1.53;0.50;;;;;;;;;;6230513;22;20385;-90
2023/12/23 09:55:43;;;;;;;0.70;0.60;;;;;;;;;;6269569;22;20395;-90
2023/12/23 09:58:09;;;;;;;0.60;0.50;;;;;;;;;;6292016;22;20415;-90
2023/12/23 10:00:35;;;;;;;0.60;0.50;;;;;;;;;;6295012;22;20445;-91
2023/12/23 10:03:01;;;;;;;0.70;0.50;;;;;;;;;;6293073;22;20417;-89
2023/12/23 10:05:27;;;;;;;0.60;0.50;;;;;;;;;;6293155;22;20384;-90
2023/12/23 10:07:57;;;;;;;0.60;0.60;;;;;;;;;;6297307;22;20391;-90
2023/12/23 10:10:24;;;;;;;0.60;0.50;;;;;;;;;;6291991;22;20376;-92
2023/12/23 10:12:50;;;;;;;0.80;0.60;;;;;;;;;;6294987;22;20914;-91
2023/12/23 10:15:16;;;;;;;0.60;0.60;;;;;;;;;;6293664;22;20427;-90
2023/12/23 10:17:42;;;;;;;0.60;0.50;;;;;;;;;;6292860;22;20384;-90
2023/12/23 10:20:09;;;;;;;0.80;0.60;;;;;;;;;;6292778;22;20568;-90
2023/12/23 10:22:35;;;;;;;0.60;0.50;;;;;;;;;;6289850;22;20395;-91
2023/12/23 10:25:02;;;;;;;0.60;0.50;;;;;;;;;;6282809;22;20909;-90
2023/12/23 10:27:28;;;;;;;1.97;0.53;;;;;;;;;;6284358;22;20396;-91
2023/12/23 10:29:54;;;;;;;0.60;0.50;;;;;;;;;;6285084;22;20372;-91
2023/12/23 10:32:23;;;;;;;0.70;0.50;;;;;;;;;;6287907;22;20384;-90
2023/12/23 10:34:49;;;;;;;0.70;0.50;;;;;;;;;;6284108;22;20383;-92
2023/12/23 10:37:18;;;;;;;0.70;0.70;;;;;;;;;;6284206;22;20847;-90
2023/12/23 10:39:46;;;;;;;0.60;0.50;;;;;;;;;;6287261;22;20399;-90
2023/12/23 10:42:19;;;;;;;0.60;0.50;;;;;;;;;;6285922;22;20515;-91
2023/12/23 10:44:46;;;;;;;0.90;0.60;;;;;;;;;;6290267;22;20406;-89
2023/12/23 10:47:12;;;;;;;0.90;0.70;;;;;;;;;;6283255;22;20679;-90
2023/12/23 10:49:38;;;;;;;0.63;0.50;;;;;;;;;;6287612;22;20384;-92
2023/12/23 10:52:04;;;;;;;0.90;0.60;;;;;;;;;;6285568;22;20417;-90
2023/12/23 10:54:31;;;;;;;0.70;0.53;;;;;;;;;;6289888;22;20406;-90
2023/12/23 10:56:57;;;;;;;0.83;0.50;;;;;;;;;;6289673;22;20392;-88
2023/12/23 10:59:23;;;;;;;0.60;0.50;;;;;;;;;;6289334;22;20388;-89
2023/12/23 11:01:49;;;;;;;0.80;0.50;;;;;;;;;;6291049;22;20415;-90
2023/12/23 11:04:17;;;;;;;1.03;0.50;;;;;;;;;;6292309;22;20463;-90
2023/12/23 11:06:47;;;;;;;0.70;0.53;;;;;;;;;;6315180;22;20424;-89
2023/12/23 11:09:14;;;;;;;0.67;0.53;;;;;;;;;;6289357;22;20373;-90
2023/12/23 11:11:40;;;;;;;0.60;0.50;;;;;;;;;;6290075;22;20380;-88
2023/12/23 11:14:10;;;;;;;0.60;0.50;;;;;;;;;;6288632;22;20387;-89
2023/12/23 11:16:39;;;;;;;0.60;0.60;;;;;;;;;;6292077;22;20381;-90
2023/12/23 11:19:05;;;;;;;0.60;0.50;;;;;;;;;;6289004;22;20898;-90
2023/12/23 11:21:34;;;;;;;0.60;0.40;;;;;;;;;;6312228;22;20405;-90
2023/12/23 11:24:00;;;;;;;2.80;0.70;;;;;;;;;;6289227;22;20364;-91
2023/12/23 11:26:44;;;;;;;1.10;0.60;;;;;;;;;;6285847;22;20419;-91
2023/12/23 11:29:13;;;;;;;0.67;0.57;;;;;;;;;;6310738;22;20367;-90
2023/12/23 11:31:39;;;;;;;0.90;0.60;;;;;;;;;;6286436;22;20459;-89
2023/12/23 11:34:15;;;;;;;0.60;0.50;;;;;;;;;;6253334;22;20385;-90
2023/12/23 11:36:49;;;;;;;0.70;0.60;;;;;;;;;;6230649;22;20424;-88
2023/12/23 11:39:18;;;;;;;0.60;0.50;;;;;;;;;;6229026;22;20435;-90
2023/12/23 11:41:47;;;;;;;0.60;0.60;;;;;;;;;;6229322;22;20424;-89
2023/12/23 11:44:13;;;;;;;1.03;0.77;;;;;;;;;;6226615;22;21014;-90
2023/12/23 11:46:43;;;;;;;0.60;0.50;;;;;;;;;;6228428;22;20381;-89
2023/12/23 11:49:09;;;;;;;0.60;0.43;;;;;;;;;;6247812;22;20761;-88
2023/12/23 11:51:36;;;;;;;1.33;0.50;;;;;;;;;;6226470;22;20378;-90
2023/12/23 11:54:02;;;;;;;0.60;0.40;;;;;;;;;;6226637;22;20373;-90
2023/12/23 11:56:28;;;;;;;0.70;0.60;;;;;;;;;;6227657;22;20373;-90
2023/12/23 11:58:54;;;;;;;1.67;0.60;;;;;;;;;;6228388;22;20377;-90
2023/12/23 12:01:20;;;;;;;0.60;0.50;;;;;;;;;;6226720;22;20435;-91
2023/12/23 12:03:48;;;;;;;0.70;0.50;;;;;;;;;;6226885;22;20476;-91
2023/12/23 12:06:14;;;;;;;0.73;0.47;;;;;;;;;;6282250;22;20391;-90
2023/12/23 12:08:45;;;;;;;1.07;0.50;;;;;;;;;;6284224;22;20403;-90
2023/12/23 12:11:14;;;;;;;0.60;0.50;;;;;;;;;;6282373;22;20372;-90
2023/12/23 12:13:40;;;;;;;0.80;0.50;;;;;;;;;;6284984;22;20815;-89
2023/12/23 12:16:07;;;;;;;0.60;0.40;;;;;;;;;;6280919;22;20462;-90
2023/12/23 12:18:34;;;;;;;0.60;0.50;;;;;;;;;;6286031;22;20807;-90
2023/12/23 12:21:00;;;;;;;0.70;0.50;;;;;;;;;;6283234;22;20427;-89
2023/12/23 12:23:26;;;;;;;0.60;0.50;;;;;;;;;;6311391;22;20361;-90
2023/12/23 12:25:56;;;;;;;0.60;0.50;;;;;;;;;;6284170;22;20484;-91
2023/12/23 12:28:22;;;;;;;1.00;0.60;;;;;;;;;;6287553;22;20419;-89
2023/12/23 12:30:49;;;;;;;0.60;0.50;;;;;;;;;;6310197;22;20361;-89
2023/12/23 12:33:18;;;;;;;0.80;0.50;;;;;;;;;;6285795;22;20384;-89
2023/12/23 12:35:44;;;;;;;0.60;0.50;;;;;;;;;;6283189;22;20389;-89
2023/12/23 12:38:10;;;;;;;0.67;0.53;;;;;;;;;;6287254;22;20384;-90
2023/12/23 12:40:36;;;;;;;0.97;0.80;;;;;;;;;;6284683;22;20702;-90
2023/12/23 12:43:06;;;;;;;0.83;0.60;;;;;;;;;;6282454;22;20434;-90
2023/12/23 12:45:40;;;;;;;0.70;0.50;;;;;;;;;;6283989;22;20767;-90
2023/12/23 12:48:08;;;;;;;0.60;0.50;;;;;;;;;;6289933;22;20394;-89
2023/12/23 12:50:34;;;;;;;0.80;0.60;;;;;;;;;;6279033;22;20412;-90
2023/12/23 12:53:01;;;;;;;0.60;0.50;;;;;;;;;;6254271;22;20404;-90
2023/12/23 12:55:27;;;;;;;0.70;0.50;;;;;;;;;;6226840;22;20377;-91
2023/12/23 12:57:54;;;;;;;0.60;0.50;;;;;;;;;;6227130;22;20855;-89
2023/12/23 13:00:21;;;;;;;0.60;0.50;;;;;;;;;;6226248;22;20753;-90
2023/12/23 13:02:48;;;;;;;0.60;0.50;;;;;;;;;;6228260;22;21014;-91
2023/12/23 13:05:16;;;;;;;1.00;0.70;;;;;;;;;;6226556;22;20855;-89
2023/12/23 13:07:43;;;;;;;0.73;0.50;;;;;;;;;;6229272;22;20388;-89
2023/12/23 13:10:09;;;;;;;0.60;0.50;;;;;;;;;;6227325;22;20392;-91
2023/12/23 13:12:35;;;;;;;0.80;0.50;;;;;;;;;;6253130;22;20362;-91
2023/12/23 13:15:02;;;;;;;0.60;0.40;;;;;;;;;;6250572;22;20384;-90
2023/12/23 13:17:28;;;;;;;0.60;0.60;;;;;;;;;;6228156;22;20443;-91
2023/12/23 13:19:55;;;;;;;0.60;0.50;;;;;;;;;;6225322;22;20387;-90
2023/12/23 13:22:21;;;;;;;0.60;0.50;;;;;;;;;;6275868;22;20384;-90
2023/12/23 13:24:47;;;;;;;0.60;0.50;;;;;;;;;;6313100;22;20448;-91
2023/12/23 13:27:13;;;;;;;1.00;0.60;;;;;;;;;;6284632;22;20384;-90
2023/12/23 13:29:39;;;;;;;0.87;0.60;;;;;;;;;;6286135;22;20814;-91
2023/12/23 13:32:05;;;;;;;0.60;0.50;;;;;;;;;;6306111;22;20478;-91
2023/12/23 13:34:31;;;;;;;0.80;0.50;;;;;;;;;;6284436;22;20387;-91
2023/12/23 13:36:57;;;;;;;0.70;0.53;;;;;;;;;;6284145;22;20822;-90
2023/12/23 13:39:23;;;;;;;0.60;0.50;;;;;;;;;;6288246;22;20464;-92
2023/12/23 13:41:49;;;;;;;0.60;0.50;;;;;;;;;;6283954;22;20451;-91
2023/12/23 13:44:15;;;;;;;0.70;0.60;;;;;;;;;;6286241;22;20376;-91
2023/12/23 13:46:41;;;;;;;1.20;0.70;;;;;;;;;;6285431;22;20377;-92
2023/12/23 13:49:07;;;;;;;3.90;0.67;;;;;;;;;;6286766;22;20380;-92
2023/12/23 13:51:33;;;;;;;0.63;0.50;;;;;;;;;;6285643;22;20867;-92
2023/12/23 13:53:59;;;;;;;1.90;0.50;;;;;;;;;;6286865;22;20381;-90
2023/12/23 13:56:25;;;;;;;0.60;0.50;;;;;;;;;;6285812;22;20387;-90
2023/12/23 13:58:51;;;;;;;0.60;0.50;;;;;;;;;;6285467;22;20918;-89
2023/12/23 14:01:17;;;;;;;0.83;0.50;;;;;;;;;;6284742;22;20423;-93
2023/12/23 14:03:43;;;;;;;0.60;0.50;;;;;;;;;;6283913;22;20432;-91
2023/12/23 14:06:09;;;;;;;0.60;0.50;;;;;;;;;;6286005;22;20914;-91
2023/12/23 14:08:36;;;;;;;1.43;0.70;;;;;;;;;;6283125;22;20356;-89
2023/12/23 14:11:02;;;;;;;0.60;0.50;;;;;;;;;;6285443;22;20372;-90
2023/12/23 14:13:28;;;;;;;0.60;0.47;;;;;;;;;;6283116;22;20381;-91
2023/12/23 14:15:54;;;;;;;0.60;0.47;;;;;;;;;;6285266;22;20380;-91
2023/12/23 14:18:20;;;;;;;0.60;0.50;;;;;;;;;;6281222;22;20372;-90
2023/12/23 14:20:46;;;;;;;1.17;0.97;;;;;;;;;;6311251;22;20423;-90
2023/12/23 14:23:12;;;;;;;2.97;1.47;;;;;;;;;;6311429;22;20361;-90
2023/12/23 14:25:38;;;;;;;0.80;0.70;;;;;;;;;;6289235;22;20396;-90
2023/12/23 14:28:04;;;;;;;1.37;0.90;;;;;;;;;;6284256;22;20383;-90
2023/12/23 14:30:31;;;;;;;0.70;0.60;;;;;;;;;;6285966;22;20372;-90
2023/12/23 14:32:57;;;;;;;0.60;0.53;;;;;;;;;;6283066;22;20385;-90
2023/12/23 14:35:23;;;;;;;0.60;0.50;;;;;;;;;;6283712;22;20391;-91
2023/12/23 14:37:49;;;;;;;0.83;0.60;;;;;;;;;;6283731;22;20380;-91